createdAt,value
2018-11-12T00:00:30.143Z,41.39
2018-11-12T00:01:30.611Z,41.34
2018-11-12T00:02:31.083Z,41.31
2018-11-12T00:03:31.549Z,41.26
2018-11-12T00:04:32.019Z,41.19
2018-11-12T00:05:32.487Z,41.13
2018-11-12T00:06:32.960Z,41.08
2018-11-12T00:07:33.428Z,41.02
2018-11-12T00:08:33.896Z,40.97
2018-11-12T00:09:34.365Z,40.92
2018-11-12T00:10:34.835Z,40.82
2018-11-12T00:11:35.304Z,40.79
2018-11-12T00:12:35.776Z,40.73
2018-11-12T00:13:36.245Z,40.66
2018-11-12T00:14:36.708Z,40.62
2018-11-12T00:15:37.182Z,40.58
2018-11-12T00:16:37.649Z,40.53
2018-11-12T00:17:38.120Z,40.50
2018-11-12T00:18:38.587Z,40.46
2018-11-12T00:19:39.058Z,40.45
2018-11-12T00:20:39.625Z,40.42
2018-11-12T00:21:40.070Z,40.38
2018-11-12T00:22:40.466Z,40.38
2018-11-12T00:23:40.936Z,40.32
2018-11-12T00:24:41.409Z,40.27
2018-11-12T00:25:41.878Z,40.25
2018-11-12T00:26:42.378Z,40.23
2018-11-12T00:27:42.819Z,40.21
2018-11-12T00:28:43.289Z,40.23
2018-11-12T00:29:43.760Z,40.22
2018-11-12T00:30:44.236Z,40.22
2018-11-12T00:31:44.702Z,40.22
2018-11-12T00:32:45.175Z,40.21
2018-11-12T00:33:45.643Z,40.22
2018-11-12T00:34:46.116Z,40.23
2018-11-12T00:35:46.588Z,40.22
2018-11-12T00:36:47.057Z,40.25
2018-11-12T00:37:47.530Z,40.23
2018-11-12T00:38:48.004Z,40.19
2018-11-12T00:39:48.473Z,40.16
2018-11-12T00:40:48.945Z,40.17
2018-11-12T00:41:49.416Z,40.12
2018-11-12T00:42:49.888Z,40.09
2018-11-12T00:43:50.363Z,40.05
2018-11-12T00:44:50.832Z,40.04
2018-11-12T00:45:51.304Z,40.06
2018-11-12T00:46:51.777Z,40.07
2018-11-12T00:47:52.254Z,40.04
2018-11-12T00:48:52.723Z,40.08
2018-11-12T00:49:53.195Z,40.12
2018-11-12T00:50:53.668Z,40.12
2018-11-12T00:51:54.142Z,40.21
2018-11-12T00:52:54.611Z,40.24
2018-11-12T00:53:55.088Z,40.22
2018-11-12T00:54:55.609Z,40.25
2018-11-12T00:55:56.033Z,40.29
2018-11-12T00:56:56.504Z,40.30
2018-11-12T00:57:56.981Z,40.32
2018-11-12T00:58:57.451Z,40.33
2018-11-12T00:59:57.923Z,40.39
2018-11-12T01:00:58.394Z,40.47
2018-11-12T01:01:58.871Z,40.53
2018-11-12T01:02:59.344Z,40.61
2018-11-12T01:03:59.853Z,40.68
2018-11-12T01:05:00.286Z,40.75
2018-11-12T01:06:00.756Z,40.82
2018-11-12T01:07:01.228Z,40.87
2018-11-12T01:08:01.701Z,40.93
2018-11-12T01:09:02.172Z,41.01
2018-11-12T01:10:02.641Z,41.05
2018-11-12T01:11:03.116Z,41.09
2018-11-12T01:12:03.583Z,41.14
2018-11-12T01:13:04.054Z,41.21
2018-11-12T01:14:04.524Z,41.27
2018-11-12T01:15:04.995Z,41.31
2018-11-12T01:16:05.476Z,41.36
2018-11-12T01:17:05.937Z,41.38
2018-11-12T01:18:06.403Z,41.36
2018-11-12T01:19:06.874Z,41.34
2018-11-12T01:20:07.342Z,41.37
2018-11-12T01:21:07.810Z,41.36
2018-11-12T01:22:08.280Z,41.31
2018-11-12T01:23:08.749Z,41.23
2018-11-12T01:24:09.220Z,41.16
2018-11-12T01:25:09.686Z,41.12
2018-11-12T01:26:10.155Z,41.05
2018-11-12T01:27:10.629Z,41.00
2018-11-12T01:28:11.095Z,40.95
2018-11-12T01:29:11.564Z,40.88
2018-11-12T01:30:12.032Z,40.80
2018-11-12T01:31:12.503Z,40.74
2018-11-12T01:32:12.975Z,40.67
2018-11-12T01:33:13.441Z,40.65
2018-11-12T01:34:13.909Z,40.59
2018-11-12T01:35:14.379Z,40.55
2018-11-12T01:36:14.850Z,40.52
2018-11-12T01:37:15.316Z,40.48
2018-11-12T01:38:15.785Z,40.45
2018-11-12T01:39:16.256Z,40.42
2018-11-12T01:40:16.728Z,40.36
2018-11-12T01:41:17.195Z,40.33
2018-11-12T01:42:17.669Z,40.29
2018-11-12T01:43:18.136Z,40.26
2018-11-12T01:44:18.606Z,40.21
2018-11-12T01:45:19.078Z,40.18
2018-11-12T01:46:19.546Z,40.13
2018-11-12T01:47:20.018Z,40.09
2018-11-12T01:48:20.487Z,40.05
2018-11-12T01:49:20.956Z,40.04
2018-11-12T01:50:21.428Z,40.04
2018-11-12T01:51:21.899Z,40.03
2018-11-12T01:52:22.371Z,40.05
2018-11-12T01:53:22.841Z,40.03
2018-11-12T01:54:23.313Z,40.07
2018-11-12T01:55:23.785Z,40.05
2018-11-12T01:56:24.285Z,40.02
2018-11-12T01:57:24.729Z,39.99
2018-11-12T01:58:25.196Z,40.02
2018-11-12T01:59:25.669Z,40.03
2018-11-12T02:00:26.142Z,40.07
2018-11-12T02:01:26.644Z,40.07
2018-11-12T02:02:27.083Z,40.07
2018-11-12T02:03:27.558Z,40.07
2018-11-12T02:04:28.030Z,40.09
2018-11-12T02:05:28.502Z,40.10
2018-11-12T02:06:28.973Z,40.08
2018-11-12T02:07:29.447Z,40.06
2018-11-12T02:08:29.917Z,40.04
2018-11-12T02:09:30.389Z,40.05
2018-11-12T02:10:30.862Z,40.07
2018-11-12T02:11:31.335Z,40.05
2018-11-12T02:12:31.807Z,40.08
2018-11-12T02:13:32.283Z,40.12
2018-11-12T02:14:32.764Z,40.19
2018-11-12T02:15:33.227Z,40.21
2018-11-12T02:16:33.700Z,40.20
2018-11-12T02:17:34.172Z,40.22
2018-11-12T02:18:34.644Z,40.24
2018-11-12T02:19:35.117Z,40.26
2018-11-12T02:20:35.592Z,40.31
2018-11-12T02:21:36.108Z,40.34
2018-11-12T02:22:36.537Z,40.38
2018-11-12T02:23:37.009Z,40.42
2018-11-12T02:24:37.483Z,40.48
2018-11-12T02:25:37.952Z,40.54
2018-11-12T02:26:38.427Z,40.56
2018-11-12T02:27:38.898Z,40.63
2018-11-12T02:28:39.369Z,40.67
2018-11-12T02:29:39.840Z,40.72
2018-11-12T02:30:40.398Z,40.75
2018-11-12T02:31:40.785Z,40.76
2018-11-12T02:32:41.317Z,40.79
2018-11-12T02:33:41.729Z,40.84
2018-11-12T02:34:42.234Z,40.90
2018-11-12T02:35:42.667Z,40.92
2018-11-12T02:36:43.139Z,40.96
2018-11-12T02:37:43.608Z,40.99
2018-11-12T02:38:44.075Z,41.01
2018-11-12T02:39:44.551Z,40.99
2018-11-12T02:40:45.016Z,40.98
2018-11-12T02:41:45.484Z,40.96
2018-11-12T02:42:45.956Z,40.98
2018-11-12T02:43:46.427Z,40.98
2018-11-12T02:44:46.894Z,40.96
2018-11-12T02:45:47.365Z,40.88
2018-11-12T02:46:47.833Z,40.82
2018-11-12T02:47:48.303Z,40.77
2018-11-12T02:48:48.773Z,40.70
2018-11-12T02:49:49.239Z,40.66
2018-11-12T02:50:49.708Z,40.57
2018-11-12T02:51:50.180Z,40.51
2018-11-12T02:52:50.646Z,40.41
2018-11-12T02:53:51.115Z,40.35
2018-11-12T02:54:51.587Z,40.29
2018-11-12T02:55:52.054Z,40.22
2018-11-12T02:56:52.523Z,40.15
2018-11-12T02:57:52.993Z,40.13
2018-11-12T02:58:53.463Z,40.10
2018-11-12T02:59:53.931Z,40.05
2018-11-12T03:00:54.400Z,39.98
2018-11-12T03:01:54.869Z,39.92
2018-11-12T03:02:55.342Z,39.85
2018-11-12T03:03:55.811Z,39.80
2018-11-12T03:04:56.282Z,39.74
2018-11-12T03:05:56.748Z,39.75
2018-11-12T03:06:57.219Z,39.72
2018-11-12T03:07:57.690Z,39.73
2018-11-12T03:08:58.161Z,39.72
2018-11-12T03:09:58.631Z,39.75
2018-11-12T03:10:59.101Z,39.74
2018-11-12T03:11:59.575Z,39.67
2018-11-12T03:13:00.045Z,39.67
2018-11-12T03:14:00.516Z,39.69
2018-11-12T03:15:00.985Z,39.70
2018-11-12T03:16:01.457Z,39.70
2018-11-12T03:17:01.929Z,39.68
2018-11-12T03:18:02.401Z,39.71
2018-11-12T03:19:02.870Z,39.71
2018-11-12T03:20:03.350Z,39.66
2018-11-12T03:21:03.815Z,39.67
2018-11-12T03:22:04.286Z,39.65
2018-11-12T03:23:04.762Z,39.65
2018-11-12T03:24:05.228Z,39.66
2018-11-12T03:25:05.702Z,39.68
2018-11-12T03:26:06.173Z,39.67
2018-11-12T03:27:06.644Z,39.69
2018-11-12T03:28:07.119Z,39.71
2018-11-12T03:29:07.590Z,39.71
2018-11-12T03:30:08.063Z,39.76
2018-11-12T03:31:08.546Z,39.74
2018-11-12T03:32:09.014Z,39.75
2018-11-12T03:33:09.479Z,39.75
2018-11-12T03:34:09.953Z,39.77
2018-11-12T03:35:10.424Z,39.77
2018-11-12T03:36:10.897Z,39.77
2018-11-12T03:37:11.371Z,39.82
2018-11-12T03:38:11.844Z,39.82
2018-11-12T03:39:12.315Z,39.81
2018-11-12T03:40:12.788Z,39.83
2018-11-12T03:41:13.265Z,39.86
2018-11-12T03:42:13.738Z,39.91
2018-11-12T03:43:14.207Z,39.96
2018-11-12T03:44:14.679Z,40.01
2018-11-12T03:45:15.168Z,40.09
2018-11-12T03:46:15.625Z,40.17
2018-11-12T03:47:16.098Z,40.23
2018-11-12T03:48:16.572Z,40.32
2018-11-12T03:49:17.043Z,40.39
2018-11-12T03:50:17.514Z,40.43
2018-11-12T03:51:17.987Z,40.50
2018-11-12T03:52:18.458Z,40.55
2018-11-12T03:53:18.928Z,40.62
2018-11-12T03:54:19.398Z,40.67
2018-11-12T03:55:19.869Z,40.73
2018-11-12T03:56:20.340Z,40.79
2018-11-12T03:57:20.811Z,40.87
2018-11-12T03:58:21.281Z,40.92
2018-11-12T03:59:21.752Z,40.96
2018-11-12T04:00:22.316Z,40.99
2018-11-12T04:01:22.691Z,40.99
2018-11-12T04:02:23.163Z,40.96
2018-11-12T04:03:23.630Z,40.95
2018-11-12T04:04:24.099Z,40.97
2018-11-12T04:05:24.569Z,40.99
2018-11-12T04:06:25.037Z,40.96
2018-11-12T04:07:25.508Z,40.88
2018-11-12T04:08:25.977Z,40.84
2018-11-12T04:09:26.446Z,40.78
2018-11-12T04:10:26.914Z,40.72
2018-11-12T04:11:27.383Z,40.65
2018-11-12T04:12:27.851Z,40.57
2018-11-12T04:13:28.327Z,40.49
2018-11-12T04:14:28.790Z,40.38
2018-11-12T04:15:29.257Z,40.36
2018-11-12T04:16:29.728Z,40.29
2018-11-12T04:17:30.198Z,40.22
2018-11-12T04:18:30.666Z,40.18
2018-11-12T04:19:31.139Z,40.13
2018-11-12T04:20:31.605Z,40.04
2018-11-12T04:21:32.075Z,39.99
2018-11-12T04:22:32.544Z,39.96
2018-11-12T04:23:33.012Z,39.91
2018-11-12T04:24:33.484Z,39.87
2018-11-12T04:25:33.955Z,39.83
2018-11-12T04:26:34.422Z,39.81
2018-11-12T04:27:34.894Z,39.78
2018-11-12T04:28:35.368Z,39.75
2018-11-12T04:29:35.832Z,39.72
2018-11-12T04:30:36.304Z,39.71
2018-11-12T04:31:36.772Z,39.66
2018-11-12T04:32:37.242Z,39.64
2018-11-12T04:33:37.715Z,39.60
2018-11-12T04:34:38.183Z,39.59
2018-11-12T04:35:38.660Z,39.60
2018-11-12T04:36:39.126Z,39.58
2018-11-12T04:37:39.595Z,39.57
2018-11-12T04:38:40.110Z,39.60
2018-11-12T04:39:40.613Z,39.58
2018-11-12T04:40:41.011Z,39.60
2018-11-12T04:41:41.481Z,39.59
2018-11-12T04:42:41.954Z,39.58
2018-11-12T04:43:42.424Z,39.60
2018-11-12T04:44:43.164Z,39.56
2018-11-12T04:45:43.390Z,39.57
2018-11-12T04:46:43.840Z,39.61
2018-11-12T04:47:44.312Z,39.63
2018-11-12T04:48:44.789Z,39.64
2018-11-12T04:49:45.257Z,39.62
2018-11-12T04:50:45.726Z,39.63
2018-11-12T04:51:46.200Z,39.63
2018-11-12T04:52:46.681Z,39.65
2018-11-12T04:53:47.219Z,39.64
2018-11-12T04:54:47.616Z,39.65
2018-11-12T04:55:48.089Z,39.63
2018-11-12T04:56:48.562Z,39.62
2018-11-12T04:57:49.034Z,39.64
2018-11-12T04:58:49.514Z,39.69
2018-11-12T04:59:49.978Z,39.72
2018-11-12T05:00:50.455Z,39.73
2018-11-12T05:01:50.959Z,39.74
2018-11-12T05:02:51.397Z,39.75
2018-11-12T05:03:51.869Z,39.79
2018-11-12T05:04:52.342Z,39.85
2018-11-12T05:05:52.815Z,39.91
2018-11-12T05:06:53.287Z,39.96
2018-11-12T05:07:53.760Z,40.02
2018-11-12T05:08:54.235Z,40.08
2018-11-12T05:09:54.707Z,40.16
2018-11-12T05:10:55.179Z,40.22
2018-11-12T05:11:55.653Z,40.29
2018-11-12T05:12:56.134Z,40.33
2018-11-12T05:13:56.599Z,40.37
2018-11-12T05:14:57.067Z,40.43
2018-11-12T05:15:57.540Z,40.49
2018-11-12T05:16:58.008Z,40.53
2018-11-12T05:17:58.484Z,40.57
2018-11-12T05:18:58.997Z,40.61
2018-11-12T05:19:59.423Z,40.66
2018-11-12T05:20:59.892Z,40.72
2018-11-12T05:22:00.361Z,40.78
2018-11-12T05:23:00.830Z,40.83
2018-11-12T05:24:01.301Z,40.84
2018-11-12T05:25:01.772Z,40.84
2018-11-12T05:26:02.239Z,40.84
2018-11-12T05:27:02.713Z,40.82
2018-11-12T05:28:03.181Z,40.82
2018-11-12T05:29:03.648Z,40.81
2018-11-12T05:30:04.123Z,40.76
2018-11-12T05:31:04.585Z,40.68
2018-11-12T05:32:05.057Z,40.62
2018-11-12T05:33:05.525Z,40.56
2018-11-12T05:34:05.996Z,40.48
2018-11-12T05:35:06.462Z,40.40
2018-11-12T05:36:06.932Z,40.34
2018-11-12T05:37:07.400Z,40.27
2018-11-12T05:38:07.892Z,40.21
2018-11-12T05:39:08.336Z,40.13
2018-11-12T05:40:08.807Z,40.05
2018-11-12T05:41:09.278Z,40.02
2018-11-12T05:42:09.745Z,39.93
2018-11-12T05:43:10.212Z,39.87
2018-11-12T05:44:10.683Z,39.82
2018-11-12T05:45:11.152Z,39.81
2018-11-12T05:46:11.622Z,39.76
2018-11-12T05:47:12.090Z,39.72
2018-11-12T05:48:12.560Z,39.68
2018-11-12T05:49:13.031Z,39.63
2018-11-12T05:50:13.503Z,39.61
2018-11-12T05:51:13.970Z,39.55
2018-11-12T05:52:14.440Z,39.53
2018-11-12T05:53:14.909Z,39.54
2018-11-12T05:54:15.378Z,39.51
2018-11-12T05:55:15.852Z,39.47
2018-11-12T05:56:16.320Z,39.46
2018-11-12T05:57:16.790Z,39.43
2018-11-12T05:58:17.262Z,39.39
2018-11-12T05:59:17.733Z,39.37
2018-11-12T06:00:18.203Z,39.37
2018-11-12T06:01:18.675Z,39.42
2018-11-12T06:02:19.143Z,39.41
2018-11-12T06:03:19.614Z,39.39
2018-11-12T06:04:20.086Z,39.40
2018-11-12T06:05:20.559Z,39.41
2018-11-12T06:06:21.030Z,39.40
2018-11-12T06:07:21.501Z,39.44
2018-11-12T06:08:21.973Z,39.49
2018-11-12T06:09:22.444Z,39.44
2018-11-12T06:10:22.918Z,39.44
2018-11-12T06:11:23.389Z,39.41
2018-11-12T06:12:23.858Z,39.43
2018-11-12T06:13:24.332Z,39.43
2018-11-12T06:14:24.802Z,39.46
2018-11-12T06:15:25.274Z,39.44
2018-11-12T06:16:25.748Z,39.43
2018-11-12T06:17:26.221Z,39.45
2018-11-12T06:18:26.714Z,39.48
2018-11-12T06:19:27.164Z,39.47
2018-11-12T06:20:27.637Z,39.47
2018-11-12T06:21:28.109Z,39.52
2018-11-12T06:22:28.634Z,39.59
2018-11-12T06:23:29.053Z,39.62
2018-11-12T06:24:29.526Z,39.57
2018-11-12T06:25:30.009Z,39.53
2018-11-12T06:26:30.473Z,39.57
2018-11-12T06:27:30.946Z,39.60
2018-11-12T06:28:31.421Z,39.60
2018-11-12T06:29:31.891Z,39.64
2018-11-12T06:30:32.364Z,39.67
2018-11-12T06:31:32.837Z,39.73
2018-11-12T06:32:33.309Z,39.76
2018-11-12T06:33:33.782Z,39.80
2018-11-12T06:34:34.257Z,39.87
2018-11-12T06:35:34.725Z,39.94
2018-11-12T06:36:35.206Z,39.99
2018-11-12T06:37:35.674Z,40.03
2018-11-12T06:38:36.141Z,40.07
2018-11-12T06:39:36.611Z,40.12
2018-11-12T06:40:37.083Z,40.14
2018-11-12T06:41:37.558Z,40.17
2018-11-12T06:42:38.115Z,40.21
2018-11-12T06:43:38.497Z,40.27
2018-11-12T06:44:38.965Z,40.31
2018-11-12T06:45:39.436Z,40.37
2018-11-12T06:46:39.916Z,40.39
2018-11-12T06:47:40.477Z,40.42
2018-11-12T06:48:40.845Z,40.36
2018-11-12T06:49:41.320Z,40.35
2018-11-12T06:50:41.837Z,40.34
2018-11-12T06:51:42.253Z,40.31
2018-11-12T06:52:42.728Z,40.22
2018-11-12T06:53:43.194Z,40.15
2018-11-12T06:54:43.663Z,40.10
2018-11-12T06:55:44.130Z,40.03
2018-11-12T06:56:44.600Z,39.95
2018-11-12T06:57:45.069Z,39.87
2018-11-12T06:58:45.538Z,39.80
2018-11-12T06:59:46.006Z,39.72
2018-11-12T07:00:46.512Z,39.63
2018-11-12T07:01:46.944Z,39.57
2018-11-12T07:02:47.416Z,39.52
2018-11-12T07:03:47.883Z,39.44
2018-11-12T07:04:48.352Z,39.39
2018-11-12T07:05:48.823Z,39.37
2018-11-12T07:06:49.316Z,39.32
2018-11-12T07:07:49.761Z,39.27
2018-11-12T07:08:50.233Z,39.23
2018-11-12T07:09:50.701Z,39.16
2018-11-12T07:10:51.172Z,39.13
2018-11-12T07:11:51.642Z,39.06
2018-11-12T07:12:52.112Z,39.05
2018-11-12T07:13:52.583Z,39.00
2018-11-12T07:14:53.054Z,38.92
2018-11-12T07:15:53.523Z,38.92
2018-11-12T07:16:53.991Z,38.87
2018-11-12T07:17:54.463Z,38.84
2018-11-12T07:18:55.056Z,38.81
2018-11-12T07:19:55.408Z,38.81
2018-11-12T07:20:55.877Z,38.78
2018-11-12T07:21:56.348Z,38.73
2018-11-12T07:22:56.821Z,38.74
2018-11-12T07:23:57.290Z,38.72
2018-11-12T07:24:57.807Z,38.71
2018-11-12T07:25:58.246Z,38.71
2018-11-12T07:26:58.708Z,38.71
2018-11-12T07:27:59.179Z,38.70
2018-11-12T07:28:59.648Z,38.66
2018-11-12T07:30:00.121Z,38.67
2018-11-12T07:31:00.633Z,38.66
2018-11-12T07:32:01.065Z,38.68
2018-11-12T07:33:01.542Z,38.66
2018-11-12T07:34:02.012Z,38.66
2018-11-12T07:35:02.484Z,38.66
2018-11-12T07:36:02.958Z,38.66
2018-11-12T07:37:03.430Z,38.67
2018-11-12T07:38:03.904Z,38.71
2018-11-12T07:39:04.376Z,38.72
2018-11-12T07:40:04.849Z,38.67
2018-11-12T07:41:05.324Z,38.64
2018-11-12T07:42:05.853Z,38.67
2018-11-12T07:43:06.269Z,38.68
2018-11-12T07:44:06.742Z,38.71
2018-11-12T07:45:07.215Z,38.76
2018-11-12T07:46:07.690Z,38.78
2018-11-12T07:47:08.162Z,38.82
2018-11-12T07:48:08.633Z,38.83
2018-11-12T07:49:09.106Z,38.86
2018-11-12T07:50:09.579Z,38.91
2018-11-12T07:51:10.081Z,38.97
2018-11-12T07:52:10.524Z,38.99
2018-11-12T07:53:10.997Z,39.05
2018-11-12T07:54:11.470Z,39.07
2018-11-12T07:55:11.943Z,39.09
2018-11-12T07:56:12.498Z,39.09
2018-11-12T07:57:12.884Z,39.08
2018-11-12T07:58:13.356Z,39.10
2018-11-12T07:59:13.831Z,39.12
2018-11-12T08:00:14.299Z,39.12
2018-11-12T08:01:14.771Z,39.15
2018-11-12T08:02:15.239Z,39.17
2018-11-12T08:03:15.781Z,39.21
2018-11-12T08:04:16.181Z,39.23
2018-11-12T08:05:16.652Z,39.22
2018-11-12T08:06:17.121Z,39.22
2018-11-12T08:07:17.590Z,39.21
2018-11-12T08:08:18.063Z,39.18
2018-11-12T08:09:18.628Z,39.13
2018-11-12T08:10:19.004Z,39.15
2018-11-12T08:11:19.472Z,39.11
2018-11-12T08:12:19.941Z,39.05
2018-11-12T08:13:20.408Z,38.97
2018-11-12T08:14:20.926Z,38.89
2018-11-12T08:15:21.350Z,38.84
2018-11-12T08:16:21.817Z,38.76
2018-11-12T08:17:22.331Z,38.66
2018-11-12T08:18:22.757Z,38.60
2018-11-12T08:19:23.226Z,38.55
2018-11-12T08:20:23.697Z,38.50
2018-11-12T08:21:24.167Z,38.45
2018-11-12T08:22:24.636Z,38.41
2018-11-12T08:23:25.107Z,38.33
2018-11-12T08:24:25.607Z,38.28
2018-11-12T08:25:26.047Z,38.21
2018-11-12T08:26:26.518Z,38.15
2018-11-12T08:27:27.039Z,38.12
2018-11-12T08:28:27.461Z,38.10
2018-11-12T08:29:27.933Z,38.07
2018-11-12T08:30:28.501Z,38.02
2018-11-12T08:31:28.872Z,38.00
2018-11-12T08:32:29.344Z,38.00
2018-11-12T08:33:29.817Z,38.00
2018-11-12T08:34:30.287Z,37.94
2018-11-12T08:35:30.760Z,37.90
2018-11-12T08:36:31.254Z,37.90
2018-11-12T08:37:31.704Z,37.86
2018-11-12T08:38:32.174Z,37.87
2018-11-12T08:39:32.772Z,37.83
2018-11-12T08:40:33.258Z,37.80
2018-11-12T08:41:33.592Z,37.76
2018-11-12T08:42:34.066Z,37.71
2018-11-12T08:43:34.539Z,37.67
2018-11-12T12:54:35.760Z,36.27
2018-11-12T12:55:36.309Z,36.07
2018-11-12T12:56:36.657Z,35.93
2018-11-12T12:57:37.113Z,35.86
2018-11-12T12:58:37.566Z,35.75
2018-11-12T12:59:38.082Z,35.63
2018-11-12T13:00:38.478Z,35.61
2018-11-12T13:01:39.025Z,35.59
2018-11-12T13:02:39.389Z,35.70
2018-11-12T13:03:39.847Z,35.82
2018-11-12T13:04:40.357Z,35.93
2018-11-12T13:05:40.764Z,36.10
2018-11-12T13:06:41.265Z,36.22
2018-11-12T13:07:41.682Z,36.39
2018-11-12T13:08:42.141Z,36.54
2018-11-12T13:09:42.604Z,36.65
2018-11-12T13:10:43.061Z,36.70
2018-11-12T13:11:43.522Z,36.74
2018-11-12T13:12:43.985Z,36.75
2018-11-12T13:13:44.459Z,36.75
2018-11-12T13:14:45.021Z,36.73
2018-11-12T13:15:45.371Z,36.72
2018-11-12T13:16:45.829Z,36.71
2018-11-12T13:17:46.292Z,36.70
2018-11-12T13:18:46.755Z,36.69
2018-11-12T13:19:47.271Z,36.69
2018-11-12T13:20:47.738Z,36.67
2018-11-12T13:21:48.150Z,36.67
2018-11-12T13:22:48.613Z,36.66
2018-11-12T13:23:49.076Z,36.65
2018-11-12T13:24:49.544Z,36.65
2018-11-12T13:25:50.010Z,36.65
2018-11-12T13:26:50.477Z,36.65
2018-11-12T13:27:50.940Z,36.66
2018-11-12T13:28:51.408Z,36.67
2018-11-12T13:29:51.935Z,36.69
2018-11-12T13:30:52.341Z,36.69
2018-11-12T13:31:52.808Z,36.69
2018-11-12T13:32:53.278Z,36.68
2018-11-12T13:33:53.750Z,36.68
2018-11-12T13:34:54.214Z,36.67
2018-11-12T13:35:54.684Z,36.67
2018-11-12T13:36:55.153Z,36.66
2018-11-12T13:37:55.624Z,36.66
2018-11-12T13:38:56.092Z,36.67
2018-11-12T13:39:56.562Z,36.68
2018-11-12T13:40:57.031Z,36.69
2018-11-12T13:41:57.503Z,36.73
2018-11-12T13:42:57.974Z,36.77
2018-11-12T13:43:58.444Z,36.77
2018-11-12T13:44:58.918Z,36.79
2018-11-12T13:45:59.389Z,36.81
2018-11-12T13:46:59.863Z,36.85
2018-11-12T13:48:00.333Z,36.88
2018-11-12T13:49:00.805Z,36.91
2018-11-12T13:50:01.278Z,36.92
2018-11-12T13:51:01.751Z,36.92
2018-11-12T13:52:02.224Z,36.96
2018-11-12T13:53:02.747Z,36.96
2018-11-12T13:54:03.171Z,36.95
2018-11-12T13:55:03.647Z,36.95
2018-11-12T13:56:04.118Z,36.95
2018-11-12T13:57:04.593Z,36.98
2018-11-12T13:58:05.069Z,37.00
2018-11-12T13:59:05.541Z,37.02
2018-11-12T14:00:06.016Z,37.04
2018-11-12T14:01:06.491Z,37.05
2018-11-12T14:02:06.966Z,37.08
2018-11-12T14:03:07.440Z,37.11
2018-11-12T14:04:07.916Z,37.17
2018-11-12T14:05:08.392Z,37.21
2018-11-12T14:06:08.864Z,37.28
2018-11-12T14:07:09.337Z,37.34
2018-11-12T14:08:09.812Z,37.37
2018-11-12T14:09:10.289Z,37.43
2018-11-12T14:10:10.765Z,37.47
2018-11-12T14:11:11.237Z,37.52
2018-11-12T14:12:11.712Z,37.58
2018-11-12T14:13:12.187Z,37.62
2018-11-12T14:14:12.660Z,37.67
2018-11-12T14:15:13.132Z,37.71
2018-11-12T14:16:13.607Z,37.74
2018-11-12T14:17:14.081Z,37.79
2018-11-12T14:18:14.556Z,37.81
2018-11-12T14:19:15.027Z,37.83
2018-11-12T14:20:15.533Z,37.87
2018-11-12T14:21:16.078Z,37.89
2018-11-12T14:22:16.449Z,37.89
2018-11-12T14:23:16.922Z,37.91
2018-11-12T14:24:17.391Z,37.91
2018-11-12T14:25:17.866Z,37.90
2018-11-12T14:26:18.339Z,37.90
2018-11-12T14:27:18.810Z,37.92
2018-11-12T14:28:19.365Z,37.91
2018-11-12T14:29:19.758Z,37.89
2018-11-12T14:30:20.229Z,37.91
2018-11-12T14:31:20.698Z,37.87
2018-11-12T14:32:21.170Z,37.85
2018-11-12T14:33:21.719Z,37.82
2018-11-12T14:34:22.114Z,37.83
2018-11-12T14:35:22.619Z,37.82
2018-11-12T14:36:23.055Z,37.80
2018-11-12T14:37:23.529Z,37.79
2018-11-12T14:38:23.998Z,37.85
2018-11-12T14:39:24.509Z,37.91
2018-11-12T14:40:24.938Z,38.00
2018-11-12T14:41:25.412Z,38.06
2018-11-12T14:42:25.883Z,38.13
2018-11-12T14:43:26.352Z,38.21
2018-11-12T14:44:26.821Z,38.27
2018-11-12T14:45:27.326Z,38.34
2018-11-12T14:46:27.764Z,38.34
2018-11-12T14:47:28.232Z,38.37
2018-11-12T14:48:28.704Z,38.39
2018-11-12T14:49:29.173Z,38.41
2018-11-12T14:50:29.644Z,38.42
2018-11-12T14:51:30.114Z,38.39
2018-11-12T14:52:30.588Z,38.43
2018-11-12T14:53:31.055Z,38.40
2018-11-12T14:54:31.530Z,38.37
2018-11-12T14:55:31.998Z,38.33
2018-11-12T14:56:32.469Z,38.32
2018-11-12T14:57:32.939Z,38.30
2018-11-12T14:58:33.412Z,38.30
2018-11-12T14:59:33.881Z,38.30
2018-11-12T15:00:34.356Z,38.30
2018-11-12T15:01:34.858Z,38.31
2018-11-12T15:02:35.302Z,38.32
2018-11-12T15:03:35.770Z,38.32
2018-11-12T15:04:36.243Z,38.33
2018-11-12T15:05:36.721Z,38.34
2018-11-12T15:06:37.189Z,38.33
2018-11-12T15:07:37.663Z,38.30
2018-11-12T15:08:38.140Z,38.28
2018-11-12T15:09:38.610Z,38.25
2018-11-12T15:10:39.084Z,38.22
2018-11-12T15:11:39.557Z,38.17
2018-11-12T15:12:40.034Z,38.11
2018-11-12T15:13:40.524Z,38.06
2018-11-12T15:14:41.001Z,38.01
2018-11-12T15:15:41.453Z,38.02
2018-11-12T15:16:41.928Z,38.04
2018-11-12T15:17:42.404Z,38.07
2018-11-12T15:18:42.878Z,38.11
2018-11-12T15:19:43.353Z,38.11
2018-11-12T15:20:43.826Z,38.13
2018-11-12T15:21:44.300Z,38.15
2018-11-12T15:22:44.816Z,38.18
2018-11-12T15:23:45.251Z,38.23
2018-11-12T15:24:45.723Z,38.26
2018-11-12T15:25:46.198Z,38.31
2018-11-12T15:26:46.677Z,38.34
2018-11-12T15:27:47.150Z,38.37
2018-11-12T15:28:47.622Z,38.40
2018-11-12T15:29:48.096Z,38.41
2018-11-12T15:30:48.571Z,38.44
2018-11-12T15:31:49.044Z,38.44
2018-11-12T15:32:49.517Z,38.48
2018-11-12T15:33:49.993Z,38.50
2018-11-12T15:34:50.463Z,38.53
2018-11-12T15:35:50.939Z,38.55
2018-11-12T15:36:51.524Z,38.57
2018-11-12T15:37:51.883Z,38.57
2018-11-12T15:38:52.356Z,38.55
2018-11-12T15:39:52.827Z,38.55
2018-11-12T15:40:53.300Z,38.56
2018-11-12T15:41:53.773Z,38.56
2018-11-12T15:42:54.248Z,38.56
2018-11-12T15:43:54.716Z,38.57
2018-11-12T15:44:55.193Z,38.59
2018-11-12T15:45:55.660Z,38.61
2018-11-12T15:46:56.132Z,38.58
2018-11-12T15:47:56.604Z,38.56
2018-11-12T15:48:57.075Z,38.55
2018-11-12T15:49:57.548Z,38.56
2018-11-12T15:50:58.112Z,38.55
2018-11-12T15:51:58.491Z,38.54
2018-11-12T15:52:58.959Z,38.61
2018-11-12T15:53:59.431Z,38.69
2018-11-12T15:54:59.902Z,38.73
2018-11-12T15:56:00.374Z,38.80
2018-11-12T15:57:00.910Z,38.88
2018-11-12T15:58:01.375Z,38.91
2018-11-12T15:59:01.785Z,38.98
2018-11-12T16:00:02.253Z,39.03
2018-11-12T16:01:02.725Z,39.08
2018-11-12T16:02:03.195Z,39.09
2018-11-12T16:03:03.665Z,39.08
2018-11-12T16:04:04.134Z,39.10
2018-11-12T16:05:04.606Z,39.15
2018-11-12T16:06:05.148Z,39.16
2018-11-12T16:07:05.549Z,39.15
2018-11-12T16:08:06.017Z,39.10
2018-11-12T16:09:06.491Z,39.08
2018-11-12T16:10:06.960Z,39.04
2018-11-12T16:11:07.470Z,39.03
2018-11-12T16:12:07.950Z,39.04
2018-11-12T16:13:08.375Z,39.03
2018-11-12T16:14:08.844Z,39.04
2018-11-12T16:15:09.317Z,39.05
2018-11-12T16:16:09.787Z,39.06
2018-11-12T16:17:10.267Z,39.07
2018-11-12T16:18:10.730Z,39.07
2018-11-12T16:19:11.265Z,39.07
2018-11-12T16:20:11.674Z,39.07
2018-11-12T16:21:12.149Z,39.05
2018-11-12T16:22:12.623Z,39.02
2018-11-12T16:23:13.094Z,38.96
2018-11-12T16:24:13.568Z,38.92
2018-11-12T16:25:14.042Z,38.89
2018-11-12T16:26:14.514Z,38.87
2018-11-12T16:27:14.990Z,38.83
2018-11-12T16:28:15.463Z,38.76
2018-11-12T16:29:15.936Z,38.70
2018-11-12T16:30:16.411Z,38.72
2018-11-12T16:31:16.889Z,38.74
2018-11-12T16:32:17.361Z,38.80
2018-11-12T16:33:17.835Z,38.81
2018-11-12T16:34:18.309Z,38.78
2018-11-12T16:35:18.788Z,38.79
2018-11-12T16:36:19.256Z,38.82
2018-11-12T16:37:19.733Z,38.85
2018-11-12T16:38:20.208Z,38.90
2018-11-12T16:39:20.681Z,38.95
2018-11-12T16:40:21.237Z,39.01
2018-11-12T16:41:21.629Z,39.05
2018-11-12T16:42:22.104Z,39.09
2018-11-12T16:43:22.577Z,39.14
2018-11-12T16:44:23.050Z,39.21
2018-11-12T16:45:23.527Z,39.22
2018-11-12T16:46:23.998Z,39.24
2018-11-12T16:47:24.473Z,39.28
2018-11-12T16:48:24.947Z,39.31
2018-11-12T16:49:25.417Z,39.37
2018-11-12T16:50:25.891Z,39.40
2018-11-12T16:51:26.363Z,39.45
2018-11-12T16:52:26.837Z,39.46
2018-11-12T16:53:27.310Z,39.47
2018-11-12T16:54:27.783Z,39.49
2018-11-12T16:55:28.253Z,39.51
2018-11-12T16:56:28.724Z,39.52
2018-11-12T16:57:29.196Z,39.55
2018-11-12T16:58:29.669Z,39.56
2018-11-12T16:59:30.141Z,39.56
2018-11-12T17:00:30.612Z,39.58
2018-11-12T17:01:31.146Z,39.58
2018-11-12T17:02:31.554Z,39.58
2018-11-12T17:03:32.027Z,39.62
2018-11-12T17:04:32.495Z,39.71
2018-11-12T17:05:32.968Z,39.79
2018-11-12T17:06:33.440Z,39.87
2018-11-12T17:07:33.912Z,39.92
2018-11-12T17:08:34.378Z,39.99